sensor_id;sensor_type;location;lat;lon;timestamp;P1;durP1;ratioP1;P2;durP2;ratioP2
211;SDS011;16228;48.800;9.002;2022-08-14T00:01:20;4.03;;;3.33;;
211;SDS011;16228;48.800;9.002;2022-08-14T00:03:47;6.00;;;3.63;;
211;SDS011;16228;48.800;9.002;2022-08-14T00:06:16;3.83;;;3.53;;
211;SDS011;16228;48.800;9.002;2022-08-14T00:08:43;3.67;;;2.87;;
211;SDS011;16228;48.800;9.002;2022-08-14T00:11:10;3.83;;;3.33;;
211;SDS011;16228;48.800;9.002;2022-08-14T00:13:37;4.93;;;3.20;;
211;SDS011;16228;48.800;9.002;2022-08-14T00:16:04;3.90;;;3.50;;
211;SDS011;16228;48.800;9.002;2022-08-14T00:18:31;5.10;;;3.60;;
211;SDS011;16228;48.800;9.002;2022-08-14T00:20:58;3.40;;;3.10;;
211;SDS011;16228;48.800;9.002;2022-08-14T00:23:27;3.50;;;3.10;;
211;SDS011;16228;48.800;9.002;2022-08-14T00:25:54;4.97;;;3.50;;
211;SDS011;16228;48.800;9.002;2022-08-14T00:28:21;4.53;;;3.70;;
211;SDS011;16228;48.800;9.002;2022-08-14T00:30:51;4.00;;;3.60;;
211;SDS011;16228;48.800;9.002;2022-08-14T00:33:22;4.40;;;4.00;;
211;SDS011;16228;48.800;9.002;2022-08-14T00:35:49;4.20;;;3.80;;
211;SDS011;16228;48.800;9.002;2022-08-14T00:38:16;4.20;;;3.77;;
211;SDS011;16228;48.800;9.002;2022-08-14T00:40:45;4.77;;;4.27;;
211;SDS011;16228;48.800;9.002;2022-08-14T00:43:12;5.77;;;4.47;;
211;SDS011;16228;48.800;9.002;2022-08-14T00:45:40;4.20;;;3.80;;
211;SDS011;16228;48.800;9.002;2022-08-14T00:48:08;6.30;;;4.33;;
211;SDS011;16228;48.800;9.002;2022-08-14T00:50:35;5.47;;;4.97;;
211;SDS011;16228;48.800;9.002;2022-08-14T00:53:02;7.77;;;4.33;;
211;SDS011;16228;48.800;9.002;2022-08-14T00:55:29;5.87;;;4.83;;
211;SDS011;16228;48.800;9.002;2022-08-14T00:57:58;7.20;;;4.80;;
211;SDS011;16228;48.800;9.002;2022-08-14T01:00:43;5.67;;;5.17;;
211;SDS011;16228;48.800;9.002;2022-08-14T01:03:14;5.20;;;4.70;;
211;SDS011;16228;48.800;9.002;2022-08-14T01:05:42;6.43;;;4.53;;
211;SDS011;16228;48.800;9.002;2022-08-14T01:08:15;5.67;;;4.50;;
211;SDS011;16228;48.800;9.002;2022-08-14T01:10:47;4.43;;;4.03;;
211;SDS011;16228;48.800;9.002;2022-08-14T01:13:19;4.60;;;4.20;;
211;SDS011;16228;48.800;9.002;2022-08-14T01:15:49;4.87;;;4.47;;
211;SDS011;16228;48.800;9.002;2022-08-14T01:18:17;4.13;;;3.83;;
211;SDS011;16228;48.800;9.002;2022-08-14T01:21:03;5.37;;;3.90;;
211;SDS011;16228;48.800;9.002;2022-08-14T01:23:36;6.53;;;4.63;;
211;SDS011;16228;48.800;9.002;2022-08-14T01:26:05;5.13;;;4.73;;
211;SDS011;16228;48.800;9.002;2022-08-14T01:28:33;4.40;;;3.90;;
211;SDS011;16228;48.800;9.002;2022-08-14T01:31:05;6.03;;;4.30;;
211;SDS011;16228;48.800;9.002;2022-08-14T01:33:35;4.20;;;3.80;;
211;SDS011;16228;48.800;9.002;2022-08-14T01:36:05;4.70;;;3.80;;
211;SDS011;16228;48.800;9.002;2022-08-14T01:38:35;4.77;;;4.20;;
211;SDS011;16228;48.800;9.002;2022-08-14T01:41:04;4.57;;;3.87;;
211;SDS011;16228;48.800;9.002;2022-08-14T01:43:41;4.30;;;3.90;;
211;SDS011;16228;48.800;9.002;2022-08-14T01:46:09;4.73;;;3.87;;
211;SDS011;16228;48.800;9.002;2022-08-14T01:48:37;5.30;;;4.17;;
211;SDS011;16228;48.800;9.002;2022-08-14T01:51:08;4.63;;;4.03;;
211;SDS011;16228;48.800;9.002;2022-08-14T01:53:37;4.37;;;3.97;;
211;SDS011;16228;48.800;9.002;2022-08-14T01:56:06;3.80;;;3.50;;
211;SDS011;16228;48.800;9.002;2022-08-14T01:58:33;4.03;;;3.63;;
211;SDS011;16228;48.800;9.002;2022-08-14T02:01:00;4.20;;;3.90;;
211;SDS011;16228;48.800;9.002;2022-08-14T02:03:29;5.57;;;3.30;;
211;SDS011;16228;48.800;9.002;2022-08-14T02:06:00;4.10;;;3.70;;
211;SDS011;16228;48.800;9.002;2022-08-14T02:08:28;4.20;;;3.67;;
211;SDS011;16228;48.800;9.002;2022-08-14T02:10:57;4.27;;;3.90;;
211;SDS011;16228;48.800;9.002;2022-08-14T02:13:48;4.30;;;3.90;;
211;SDS011;16228;48.800;9.002;2022-08-14T02:16:18;4.60;;;3.60;;
211;SDS011;16228;48.800;9.002;2022-08-14T02:18:49;3.80;;;3.50;;
211;SDS011;16228;48.800;9.002;2022-08-14T02:21:17;4.30;;;3.77;;
211;SDS011;16228;48.800;9.002;2022-08-14T02:23:45;3.70;;;3.40;;
211;SDS011;16228;48.800;9.002;2022-08-14T02:26:15;4.10;;;3.77;;
211;SDS011;16228;48.800;9.002;2022-08-14T02:28:43;6.00;;;4.47;;
211;SDS011;16228;48.800;9.002;2022-08-14T02:31:11;4.03;;;3.73;;
211;SDS011;16228;48.800;9.002;2022-08-14T02:33:39;4.03;;;3.70;;
211;SDS011;16228;48.800;9.002;2022-08-14T02:36:07;4.53;;;4.10;;
211;SDS011;16228;48.800;9.002;2022-08-14T02:38:35;4.07;;;3.70;;
211;SDS011;16228;48.800;9.002;2022-08-14T02:41:07;4.63;;;4.20;;
211;SDS011;16228;48.800;9.002;2022-08-14T02:43:37;5.37;;;3.80;;
211;SDS011;16228;48.800;9.002;2022-08-14T02:46:05;4.30;;;3.90;;
211;SDS011;16228;48.800;9.002;2022-08-14T02:48:35;4.40;;;4.00;;
211;SDS011;16228;48.800;9.002;2022-08-14T02:51:04;5.03;;;3.97;;
211;SDS011;16228;48.800;9.002;2022-08-14T02:53:35;4.33;;;3.93;;
211;SDS011;16228;48.800;9.002;2022-08-14T02:56:05;4.37;;;4.07;;
211;SDS011;16228;48.800;9.002;2022-08-14T02:58:35;4.47;;;4.07;;
211;SDS011;16228;48.800;9.002;2022-08-14T03:01:05;4.63;;;4.03;;
211;SDS011;16228;48.800;9.002;2022-08-14T03:03:33;4.20;;;3.80;;
211;SDS011;16228;48.800;9.002;2022-08-14T03:06:02;5.10;;;4.47;;
211;SDS011;16228;48.800;9.002;2022-08-14T03:08:30;4.10;;;3.80;;
211;SDS011;16228;48.800;9.002;2022-08-14T03:10:58;4.87;;;4.43;;
211;SDS011;16228;48.800;9.002;2022-08-14T03:13:31;4.50;;;4.10;;
211;SDS011;16228;48.800;9.002;2022-08-14T03:16:01;4.77;;;4.30;;
211;SDS011;16228;48.800;9.002;2022-08-14T03:18:29;4.20;;;3.90;;
211;SDS011;16228;48.800;9.002;2022-08-14T03:20:58;5.03;;;4.53;;
211;SDS011;16228;48.800;9.002;2022-08-14T03:23:26;5.03;;;4.63;;
211;SDS011;16228;48.800;9.002;2022-08-14T03:25:59;4.77;;;4.40;;
211;SDS011;16228;48.800;9.002;2022-08-14T03:28:28;5.10;;;4.60;;
211;SDS011;16228;48.800;9.002;2022-08-14T03:30:55;4.67;;;4.37;;
211;SDS011;16228;48.800;9.002;2022-08-14T03:33:24;4.90;;;4.50;;
211;SDS011;16228;48.800;9.002;2022-08-14T03:35:53;4.90;;;4.50;;
211;SDS011;16228;48.800;9.002;2022-08-14T03:38:20;4.70;;;4.30;;
211;SDS011;16228;48.800;9.002;2022-08-14T03:40:47;6.40;;;4.37;;
211;SDS011;16228;48.800;9.002;2022-08-14T03:43:14;4.80;;;4.27;;
211;SDS011;16228;48.800;9.002;2022-08-14T03:45:41;5.00;;;4.33;;
211;SDS011;16228;48.800;9.002;2022-08-14T03:48:09;4.57;;;4.27;;
211;SDS011;16228;48.800;9.002;2022-08-14T03:50:40;4.83;;;4.40;;
211;SDS011;16228;48.800;9.002;2022-08-14T03:53:09;4.97;;;4.33;;
211;SDS011;16228;48.800;9.002;2022-08-14T03:55:38;4.70;;;4.30;;
211;SDS011;16228;48.800;9.002;2022-08-14T03:58:06;4.70;;;4.30;;
211;SDS011;16228;48.800;9.002;2022-08-14T04:00:33;4.67;;;4.07;;
211;SDS011;16228;48.800;9.002;2022-08-14T04:03:01;4.67;;;4.27;;
211;SDS011;16228;48.800;9.002;2022-08-14T04:05:30;4.63;;;4.33;;
211;SDS011;16228;48.800;9.002;2022-08-14T04:07:59;6.10;;;4.83;;
211;SDS011;16228;48.800;9.002;2022-08-14T04:10:26;4.83;;;4.43;;
211;SDS011;16228;48.800;9.002;2022-08-14T04:12:53;4.60;;;4.30;;
211;SDS011;16228;48.800;9.002;2022-08-14T04:15:24;5.97;;;4.57;;
211;SDS011;16228;48.800;9.002;2022-08-14T04:17:51;5.37;;;4.87;;
211;SDS011;16228;48.800;9.002;2022-08-14T04:20:18;4.87;;;4.43;;
211;SDS011;16228;48.800;9.002;2022-08-14T04:22:45;4.70;;;4.30;;
211;SDS011;16228;48.800;9.002;2022-08-14T04:25:15;5.63;;;5.13;;
211;SDS011;16228;48.800;9.002;2022-08-14T04:27:43;5.43;;;4.93;;
211;SDS011;16228;48.800;9.002;2022-08-14T04:30:11;5.07;;;4.67;;
211;SDS011;16228;48.800;9.002;2022-08-14T04:32:39;4.63;;;4.17;;
211;SDS011;16228;48.800;9.002;2022-08-14T04:35:06;4.63;;;4.23;;
211;SDS011;16228;48.800;9.002;2022-08-14T04:37:34;4.50;;;4.10;;
211;SDS011;16228;48.800;9.002;2022-08-14T04:40:20;5.03;;;4.53;;
211;SDS011;16228;48.800;9.002;2022-08-14T04:43:17;5.60;;;4.40;;
211;SDS011;16228;48.800;9.002;2022-08-14T04:46:05;4.93;;;4.40;;
211;SDS011;16228;48.800;9.002;2022-08-14T04:48:33;4.70;;;4.30;;
211;SDS011;16228;48.800;9.002;2022-08-14T04:51:00;5.03;;;4.10;;
211;SDS011;16228;48.800;9.002;2022-08-14T04:53:29;4.73;;;4.13;;
211;SDS011;16228;48.800;9.002;2022-08-14T04:55:59;5.53;;;4.60;;
211;SDS011;16228;48.800;9.002;2022-08-14T04:58:27;5.57;;;4.50;;
211;SDS011;16228;48.800;9.002;2022-08-14T05:00:56;5.10;;;4.60;;
211;SDS011;16228;48.800;9.002;2022-08-14T05:03:24;4.90;;;4.27;;
211;SDS011;16228;48.800;9.002;2022-08-14T05:05:53;4.70;;;4.10;;
211;SDS011;16228;48.800;9.002;2022-08-14T05:08:22;4.93;;;4.50;;
211;SDS011;16228;48.800;9.002;2022-08-14T05:10:50;4.83;;;4.37;;
211;SDS011;16228;48.800;9.002;2022-08-14T05:13:20;4.10;;;3.80;;
211;SDS011;16228;48.800;9.002;2022-08-14T05:15:49;5.60;;;4.37;;
211;SDS011;16228;48.800;9.002;2022-08-14T05:18:18;4.43;;;4.03;;
211;SDS011;16228;48.800;9.002;2022-08-14T05:20:47;3.50;;;3.27;;
211;SDS011;16228;48.800;9.002;2022-08-14T05:23:17;4.50;;;4.10;;
211;SDS011;16228;48.800;9.002;2022-08-14T05:25:46;4.13;;;3.73;;
211;SDS011;16228;48.800;9.002;2022-08-14T05:28:16;3.80;;;3.50;;
211;SDS011;16228;48.800;9.002;2022-08-14T05:30:46;4.37;;;3.97;;
211;SDS011;16228;48.800;9.002;2022-08-14T05:33:13;4.03;;;3.40;;
211;SDS011;16228;48.800;9.002;2022-08-14T05:35:42;3.73;;;3.43;;
211;SDS011;16228;48.800;9.002;2022-08-14T05:38:10;4.90;;;3.33;;
211;SDS011;16228;48.800;9.002;2022-08-14T05:40:38;3.83;;;3.53;;
211;SDS011;16228;48.800;9.002;2022-08-14T05:43:05;3.43;;;3.20;;
211;SDS011;16228;48.800;9.002;2022-08-14T05:45:32;3.73;;;3.43;;
211;SDS011;16228;48.800;9.002;2022-08-14T05:48:01;3.73;;;3.13;;
211;SDS011;16228;48.800;9.002;2022-08-14T05:50:28;3.67;;;3.37;;
211;SDS011;16228;48.800;9.002;2022-08-14T05:52:56;4.30;;;3.33;;
211;SDS011;16228;48.800;9.002;2022-08-14T05:55:23;3.97;;;3.53;;
211;SDS011;16228;48.800;9.002;2022-08-14T05:57:51;3.17;;;2.90;;
211;SDS011;16228;48.800;9.002;2022-08-14T06:00:21;3.23;;;2.93;;
211;SDS011;16228;48.800;9.002;2022-08-14T06:02:49;3.23;;;2.87;;
211;SDS011;16228;48.800;9.002;2022-08-14T06:05:18;3.43;;;3.13;;
211;SDS011;16228;48.800;9.002;2022-08-14T06:07:45;3.53;;;3.10;;
211;SDS011;16228;48.800;9.002;2022-08-14T06:10:13;3.30;;;3.10;;
211;SDS011;16228;48.800;9.002;2022-08-14T06:12:40;4.00;;;3.40;;
211;SDS011;16228;48.800;9.002;2022-08-14T06:15:08;4.50;;;3.20;;
211;SDS011;16228;48.800;9.002;2022-08-14T06:17:42;3.20;;;2.90;;
211;SDS011;16228;48.800;9.002;2022-08-14T06:20:10;3.20;;;3.00;;
211;SDS011;16228;48.800;9.002;2022-08-14T06:22:40;3.27;;;2.97;;
211;SDS011;16228;48.800;9.002;2022-08-14T06:25:08;3.53;;;3.23;;
211;SDS011;16228;48.800;9.002;2022-08-14T06:27:36;3.50;;;2.57;;
211;SDS011;16228;48.800;9.002;2022-08-14T06:30:08;3.17;;;2.87;;
211;SDS011;16228;48.800;9.002;2022-08-14T06:32:37;3.10;;;2.73;;
211;SDS011;16228;48.800;9.002;2022-08-14T06:35:04;2.97;;;2.77;;
211;SDS011;16228;48.800;9.002;2022-08-14T06:37:41;2.30;;;2.10;;
211;SDS011;16228;48.800;9.002;2022-08-14T06:40:11;2.83;;;2.63;;
211;SDS011;16228;48.800;9.002;2022-08-14T06:42:39;2.57;;;2.37;;
211;SDS011;16228;48.800;9.002;2022-08-14T06:45:07;2.27;;;2.07;;
211;SDS011;16228;48.800;9.002;2022-08-14T06:47:35;2.17;;;2.07;;
211;SDS011;16228;48.800;9.002;2022-08-14T06:50:05;2.87;;;2.13;;
211;SDS011;16228;48.800;9.002;2022-08-14T06:52:35;2.53;;;2.30;;
211;SDS011;16228;48.800;9.002;2022-08-14T06:55:05;3.70;;;2.30;;
211;SDS011;16228;48.800;9.002;2022-08-14T06:57:38;3.77;;;2.30;;
211;SDS011;16228;48.800;9.002;2022-08-14T07:00:10;2.23;;;2.03;;
211;SDS011;16228;48.800;9.002;2022-08-14T07:02:39;2.83;;;1.90;;
211;SDS011;16228;48.800;9.002;2022-08-14T07:05:23;2.20;;;2.00;;
211;SDS011;16228;48.800;9.002;2022-08-14T07:08:10;2.20;;;2.10;;
211;SDS011;16228;48.800;9.002;2022-08-14T07:10:40;2.77;;;1.90;;
211;SDS011;16228;48.800;9.002;2022-08-14T07:13:08;2.87;;;2.30;;
211;SDS011;16228;48.800;9.002;2022-08-14T07:15:36;4.37;;;2.23;;
211;SDS011;16228;48.800;9.002;2022-08-14T07:18:04;3.50;;;1.60;;
211;SDS011;16228;48.800;9.002;2022-08-14T07:20:32;3.50;;;1.83;;
211;SDS011;16228;48.800;9.002;2022-08-14T07:22:59;2.17;;;1.73;;
211;SDS011;16228;48.800;9.002;2022-08-14T07:25:27;3.25;;;1.75;;
211;SDS011;16228;48.800;9.002;2022-08-14T07:27:56;1.83;;;1.55;;
211;SDS011;16228;48.800;9.002;2022-08-14T07:30:23;1.90;;;1.80;;
211;SDS011;16228;48.800;9.002;2022-08-14T07:32:50;1.83;;;1.73;;
211;SDS011;16228;48.800;9.002;2022-08-14T07:35:17;1.25;;;1.15;;
211;SDS011;16228;48.800;9.002;2022-08-14T07:37:46;1.83;;;1.60;;
211;SDS011;16228;48.800;9.002;2022-08-14T07:40:14;1.70;;;1.60;;
211;SDS011;16228;48.800;9.002;2022-08-14T07:42:42;1.75;;;1.52;;
211;SDS011;16228;48.800;9.002;2022-08-14T07:45:11;1.52;;;1.42;;
211;SDS011;16228;48.800;9.002;2022-08-14T07:47:39;3.35;;;1.83;;
211;SDS011;16228;48.800;9.002;2022-08-14T07:50:10;1.60;;;1.35;;
211;SDS011;16228;48.800;9.002;2022-08-14T07:52:39;1.40;;;1.30;;
211;SDS011;16228;48.800;9.002;2022-08-14T07:55:07;1.83;;;1.30;;
211;SDS011;16228;48.800;9.002;2022-08-14T07:57:34;1.70;;;1.60;;
211;SDS011;16228;48.800;9.002;2022-08-14T08:00:04;1.75;;;1.50;;
211;SDS011;16228;48.800;9.002;2022-08-14T08:02:37;1.70;;;1.50;;
211;SDS011;16228;48.800;9.002;2022-08-14T08:05:06;2.08;;;1.58;;
211;SDS011;16228;48.800;9.002;2022-08-14T08:07:35;1.58;;;1.48;;
211;SDS011;16228;48.800;9.002;2022-08-14T08:10:04;1.63;;;1.50;;
211;SDS011;16228;48.800;9.002;2022-08-14T08:12:47;1.30;;;1.20;;
211;SDS011;16228;48.800;9.002;2022-08-14T08:15:16;2.53;;;1.30;;
211;SDS011;16228;48.800;9.002;2022-08-14T08:17:45;1.42;;;1.13;;
211;SDS011;16228;48.800;9.002;2022-08-14T08:20:16;1.92;;;1.73;;
211;SDS011;16228;48.800;9.002;2022-08-14T08:22:44;1.50;;;1.40;;
211;SDS011;16228;48.800;9.002;2022-08-14T08:25:12;1.25;;;1.15;;
211;SDS011;16228;48.800;9.002;2022-08-14T08:27:39;1.40;;;1.30;;
211;SDS011;16228;48.800;9.002;2022-08-14T08:30:07;1.05;;;1.05;;
211;SDS011;16228;48.800;9.002;2022-08-14T08:32:39;1.30;;;1.20;;
211;SDS011;16228;48.800;9.002;2022-08-14T08:35:16;1.23;;;1.10;;
211;SDS011;16228;48.800;9.002;2022-08-14T08:37:45;1.40;;;1.30;;
211;SDS011;16228;48.800;9.002;2022-08-14T08:40:20;1.45;;;1.35;;
211;SDS011;16228;48.800;9.002;2022-08-14T08:42:51;1.65;;;1.30;;
211;SDS011;16228;48.800;9.002;2022-08-14T08:45:18;1.33;;;1.23;;
211;SDS011;16228;48.800;9.002;2022-08-14T08:47:49;1.67;;;1.30;;
211;SDS011;16228;48.800;9.002;2022-08-14T08:50:19;2.10;;;1.38;;
211;SDS011;16228;48.800;9.002;2022-08-14T08:52:49;1.20;;;1.10;;
211;SDS011;16228;48.800;9.002;2022-08-14T08:55:27;1.63;;;1.30;;
211;SDS011;16228;48.800;9.002;2022-08-14T08:57:57;1.80;;;1.48;;
211;SDS011;16228;48.800;9.002;2022-08-14T09:00:27;1.30;;;1.20;;
211;SDS011;16228;48.800;9.002;2022-08-14T09:03:00;1.35;;;1.23;;
211;SDS011;16228;48.800;9.002;2022-08-14T09:05:33;1.67;;;1.35;;
211;SDS011;16228;48.800;9.002;2022-08-14T09:08:08;1.40;;;1.30;;
211;SDS011;16228;48.800;9.002;2022-08-14T09:10:40;1.45;;;1.20;;
211;SDS011;16228;48.800;9.002;2022-08-14T09:13:08;1.15;;;1.05;;
211;SDS011;16228;48.800;9.002;2022-08-14T09:15:37;1.27;;;1.20;;
211;SDS011;16228;48.800;9.002;2022-08-14T09:18:06;1.50;;;1.40;;
211;SDS011;16228;48.800;9.002;2022-08-14T09:20:36;1.20;;;1.10;;
211;SDS011;16228;48.800;9.002;2022-08-14T09:23:05;2.35;;;1.42;;
211;SDS011;16228;48.800;9.002;2022-08-14T09:25:33;2.67;;;1.60;;
211;SDS011;16228;48.800;9.002;2022-08-14T09:28:01;1.60;;;1.42;;
211;SDS011;16228;48.800;9.002;2022-08-14T09:30:29;1.20;;;1.10;;
211;SDS011;16228;48.800;9.002;2022-08-14T09:36:05;1.90;;;1.40;;
211;SDS011;16228;48.800;9.002;2022-08-14T09:38:57;1.80;;;1.45;;
211;SDS011;16228;48.800;9.002;2022-08-14T09:41:33;1.42;;;1.33;;
211;SDS011;16228;48.800;9.002;2022-08-14T09:44:13;1.17;;;1.17;;
211;SDS011;16228;48.800;9.002;2022-08-14T09:46:54;1.58;;;1.33;;
211;SDS011;16228;48.800;9.002;2022-08-14T09:49:29;1.98;;;1.40;;
211;SDS011;16228;48.800;9.002;2022-08-14T09:52:03;1.77;;;1.60;;
211;SDS011;16228;48.800;9.002;2022-08-14T09:54:35;1.35;;;1.25;;
211;SDS011;16228;48.800;9.002;2022-08-14T09:57:05;2.75;;;1.40;;
211;SDS011;16228;48.800;9.002;2022-08-14T09:59:41;2.25;;;1.13;;
211;SDS011;16228;48.800;9.002;2022-08-14T10:02:23;1.42;;;1.33;;
211;SDS011;16228;48.800;9.002;2022-08-14T10:04:59;1.98;;;1.30;;
211;SDS011;16228;48.800;9.002;2022-08-14T10:07:32;2.33;;;1.38;;
211;SDS011;16228;48.800;9.002;2022-08-14T10:10:01;2.88;;;1.85;;
211;SDS011;16228;48.800;9.002;2022-08-14T10:12:43;1.50;;;1.40;;
211;SDS011;16228;48.800;9.002;2022-08-14T10:15:16;1.30;;;1.23;;
211;SDS011;16228;48.800;9.002;2022-08-14T10:17:45;1.48;;;1.38;;
211;SDS011;16228;48.800;9.002;2022-08-14T10:20:13;1.20;;;1.20;;
211;SDS011;16228;48.800;9.002;2022-08-14T10:22:46;1.85;;;1.40;;
211;SDS011;16228;48.800;9.002;2022-08-14T10:25:15;1.73;;;1.63;;
211;SDS011;16228;48.800;9.002;2022-08-14T10:27:43;1.92;;;1.52;;
211;SDS011;16228;48.800;9.002;2022-08-14T10:30:14;2.00;;;1.63;;
211;SDS011;16228;48.800;9.002;2022-08-14T10:32:44;1.80;;;1.70;;
211;SDS011;16228;48.800;9.002;2022-08-14T10:35:14;1.95;;;1.60;;
211;SDS011;16228;48.800;9.002;2022-08-14T10:37:44;2.33;;;1.95;;
211;SDS011;16228;48.800;9.002;2022-08-14T10:40:23;1.50;;;1.40;;
211;SDS011;16228;48.800;9.002;2022-08-14T10:42:52;1.63;;;1.40;;
211;SDS011;16228;48.800;9.002;2022-08-14T10:45:21;1.77;;;1.67;;
211;SDS011;16228;48.800;9.002;2022-08-14T10:47:50;1.60;;;1.50;;
211;SDS011;16228;48.800;9.002;2022-08-14T10:50:27;1.77;;;1.67;;
211;SDS011;16228;48.800;9.002;2022-08-14T10:52:55;1.95;;;1.40;;
211;SDS011;16228;48.800;9.002;2022-08-14T10:55:30;2.00;;;1.75;;
211;SDS011;16228;48.800;9.002;2022-08-14T10:58:04;2.05;;;1.73;;
211;SDS011;16228;48.800;9.002;2022-08-14T11:00:36;2.42;;;1.70;;
211;SDS011;16228;48.800;9.002;2022-08-14T11:03:05;1.77;;;1.40;;
211;SDS011;16228;48.800;9.002;2022-08-14T11:05:38;1.70;;;1.60;;
211;SDS011;16228;48.800;9.002;2022-08-14T11:08:07;1.80;;;1.70;;
211;SDS011;16228;48.800;9.002;2022-08-14T11:10:41;1.60;;;1.50;;
211;SDS011;16228;48.800;9.002;2022-08-14T11:13:14;1.70;;;1.60;;
211;SDS011;16228;48.800;9.002;2022-08-14T11:15:45;1.40;;;1.38;;
211;SDS011;16228;48.800;9.002;2022-08-14T11:18:13;1.50;;;1.40;;
211;SDS011;16228;48.800;9.002;2022-08-14T11:20:41;2.03;;;1.67;;
211;SDS011;16228;48.800;9.002;2022-08-14T11:23:14;2.35;;;1.60;;
211;SDS011;16228;48.800;9.002;2022-08-14T11:25:44;1.80;;;1.70;;
211;SDS011;16228;48.800;9.002;2022-08-14T11:28:13;2.05;;;1.63;;
211;SDS011;16228;48.800;9.002;2022-08-14T11:30:42;1.88;;;1.77;;
211;SDS011;16228;48.800;9.002;2022-08-14T11:33:09;1.60;;;1.50;;
211;SDS011;16228;48.800;9.002;2022-08-14T11:35:37;1.88;;;1.77;;
211;SDS011;16228;48.800;9.002;2022-08-14T11:38:06;1.95;;;1.75;;
211;SDS011;16228;48.800;9.002;2022-08-14T11:40:35;1.48;;;1.27;;
211;SDS011;16228;48.800;9.002;2022-08-14T11:43:05;1.80;;;1.60;;
211;SDS011;16228;48.800;9.002;2022-08-14T11:45:34;1.90;;;1.80;;
211;SDS011;16228;48.800;9.002;2022-08-14T11:48:13;1.90;;;1.80;;
211;SDS011;16228;48.800;9.002;2022-08-14T11:50:41;3.15;;;1.48;;
211;SDS011;16228;48.800;9.002;2022-08-14T11:53:17;1.77;;;1.42;;
211;SDS011;16228;48.800;9.002;2022-08-14T11:55:46;1.90;;;1.50;;
211;SDS011;16228;48.800;9.002;2022-08-14T11:58:23;1.95;;;1.60;;
211;SDS011;16228;48.800;9.002;2022-08-14T12:00:52;1.67;;;1.58;;
211;SDS011;16228;48.800;9.002;2022-08-14T12:03:22;1.95;;;1.70;;
211;SDS011;16228;48.800;9.002;2022-08-14T12:06:04;2.38;;;1.60;;
211;SDS011;16228;48.800;9.002;2022-08-14T12:08:33;1.63;;;1.38;;
211;SDS011;16228;48.800;9.002;2022-08-14T12:11:01;2.30;;;1.60;;
211;SDS011;16228;48.800;9.002;2022-08-14T12:13:34;1.60;;;1.42;;
211;SDS011;16228;48.800;9.002;2022-08-14T12:16:11;2.75;;;1.90;;
211;SDS011;16228;48.800;9.002;2022-08-14T12:19:01;1.80;;;1.70;;
211;SDS011;16228;48.800;9.002;2022-08-14T12:21:33;1.92;;;1.83;;
211;SDS011;16228;48.800;9.002;2022-08-14T12:24:17;1.80;;;1.70;;
211;SDS011;16228;48.800;9.002;2022-08-14T12:27:06;1.60;;;1.50;;
211;SDS011;16228;48.800;9.002;2022-08-14T12:29:51;2.60;;;1.55;;
211;SDS011;16228;48.800;9.002;2022-08-14T12:32:24;4.20;;;2.08;;
211;SDS011;16228;48.800;9.002;2022-08-14T12:35:05;1.70;;;1.60;;
211;SDS011;16228;48.800;9.002;2022-08-14T12:38:12;1.70;;;1.60;;
211;SDS011;16228;48.800;9.002;2022-08-14T12:40:45;1.52;;;1.42;;
211;SDS011;16228;48.800;9.002;2022-08-14T12:43:17;2.95;;;1.80;;
211;SDS011;16228;48.800;9.002;2022-08-14T12:45:55;1.55;;;1.45;;
211;SDS011;16228;48.800;9.002;2022-08-14T12:48:42;3.22;;;1.38;;
211;SDS011;16228;48.800;9.002;2022-08-14T12:51:23;1.48;;;1.40;;
211;SDS011;16228;48.800;9.002;2022-08-14T12:54:11;1.65;;;1.55;;
211;SDS011;16228;48.800;9.002;2022-08-14T12:57:04;1.75;;;1.40;;
211;SDS011;16228;48.800;9.002;2022-08-14T13:00:06;1.40;;;1.30;;
211;SDS011;16228;48.800;9.002;2022-08-14T13:02:40;1.50;;;1.40;;
211;SDS011;16228;48.800;9.002;2022-08-14T13:05:16;1.92;;;1.58;;
211;SDS011;16228;48.800;9.002;2022-08-14T13:07:51;1.65;;;1.55;;
211;SDS011;16228;48.800;9.002;2022-08-14T13:10:22;1.70;;;1.60;;
211;SDS011;16228;48.800;9.002;2022-08-14T13:13:05;1.20;;;1.20;;
211;SDS011;16228;48.800;9.002;2022-08-14T13:15:43;1.30;;;1.30;;
211;SDS011;16228;48.800;9.002;2022-08-14T13:18:23;1.40;;;1.30;;
211;SDS011;16228;48.800;9.002;2022-08-14T13:20:59;1.73;;;1.50;;
211;SDS011;16228;48.800;9.002;2022-08-14T13:23:35;1.60;;;1.50;;
211;SDS011;16228;48.800;9.002;2022-08-14T13:26:15;1.50;;;1.40;;
211;SDS011;16228;48.800;9.002;2022-08-14T13:28:47;1.52;;;1.42;;
211;SDS011;16228;48.800;9.002;2022-08-14T13:31:20;1.70;;;1.60;;
211;SDS011;16228;48.800;9.002;2022-08-14T13:34:01;3.10;;;1.70;;
211;SDS011;16228;48.800;9.002;2022-08-14T13:36:40;1.70;;;1.60;;
211;SDS011;16228;48.800;9.002;2022-08-14T13:39:12;1.58;;;1.48;;
211;SDS011;16228;48.800;9.002;2022-08-14T13:41:45;1.60;;;1.50;;
211;SDS011;16228;48.800;9.002;2022-08-14T13:44:18;1.80;;;1.70;;
211;SDS011;16228;48.800;9.002;2022-08-14T13:46:57;1.77;;;1.67;;
211;SDS011;16228;48.800;9.002;2022-08-14T13:49:34;1.60;;;1.50;;
211;SDS011;16228;48.800;9.002;2022-08-14T13:52:10;1.85;;;1.75;;
211;SDS011;16228;48.800;9.002;2022-08-14T13:55:28;2.35;;;1.60;;
211;SDS011;16228;48.800;9.002;2022-08-14T13:58:11;1.35;;;1.25;;
211;SDS011;16228;48.800;9.002;2022-08-14T14:00:55;1.58;;;1.48;;
211;SDS011;16228;48.800;9.002;2022-08-14T14:03:24;1.70;;;1.60;;
211;SDS011;16228;48.800;9.002;2022-08-14T14:05:53;2.03;;;1.40;;
211;SDS011;16228;48.800;9.002;2022-08-14T14:08:21;1.60;;;1.50;;
211;SDS011;16228;48.800;9.002;2022-08-14T14:10:49;2.00;;;1.58;;
211;SDS011;16228;48.800;9.002;2022-08-14T14:13:18;1.50;;;1.40;;
211;SDS011;16228;48.800;9.002;2022-08-14T14:15:47;1.47;;;1.30;;
211;SDS011;16228;48.800;9.002;2022-08-14T14:18:15;1.80;;;1.30;;
211;SDS011;16228;48.800;9.002;2022-08-14T14:20:44;1.45;;;1.35;;
211;SDS011;16228;48.800;9.002;2022-08-14T14:23:13;1.60;;;1.50;;
211;SDS011;16228;48.800;9.002;2022-08-14T14:25:41;1.40;;;1.20;;
211;SDS011;16228;48.800;9.002;2022-08-14T14:28:12;1.73;;;1.30;;
211;SDS011;16228;48.800;9.002;2022-08-14T14:30:43;1.70;;;1.60;;
211;SDS011;16228;48.800;9.002;2022-08-14T14:33:12;1.40;;;1.40;;
211;SDS011;16228;48.800;9.002;2022-08-14T14:35:42;1.77;;;1.40;;
211;SDS011;16228;48.800;9.002;2022-08-14T14:38:15;1.37;;;1.23;;
211;SDS011;16228;48.800;9.002;2022-08-14T14:40:43;2.43;;;1.50;;
211;SDS011;16228;48.800;9.002;2022-08-14T14:43:12;1.40;;;1.30;;
211;SDS011;16228;48.800;9.002;2022-08-14T14:45:42;1.40;;;1.30;;
211;SDS011;16228;48.800;9.002;2022-08-14T14:48:11;1.50;;;1.40;;
211;SDS011;16228;48.800;9.002;2022-08-14T14:50:39;1.60;;;1.40;;
211;SDS011;16228;48.800;9.002;2022-08-14T14:53:07;1.60;;;1.50;;
211;SDS011;16228;48.800;9.002;2022-08-14T14:55:38;2.03;;;1.40;;
211;SDS011;16228;48.800;9.002;2022-08-14T14:58:06;2.13;;;1.30;;
211;SDS011;16228;48.800;9.002;2022-08-14T15:00:34;1.27;;;1.17;;
211;SDS011;16228;48.800;9.002;2022-08-14T15:03:02;1.53;;;1.30;;
211;SDS011;16228;48.800;9.002;2022-08-14T15:05:29;1.43;;;1.33;;
211;SDS011;16228;48.800;9.002;2022-08-14T15:07:56;1.53;;;1.20;;
211;SDS011;16228;48.800;9.002;2022-08-14T15:10:23;1.80;;;1.50;;
211;SDS011;16228;48.800;9.002;2022-08-14T15:12:53;1.77;;;1.67;;
211;SDS011;16228;48.800;9.002;2022-08-14T15:15:20;1.83;;;1.70;;
211;SDS011;16228;48.800;9.002;2022-08-14T15:17:47;0.90;;;0.90;;
211;SDS011;16228;48.800;9.002;2022-08-14T15:20:15;1.93;;;1.73;;
211;SDS011;16228;48.800;9.002;2022-08-14T15:22:43;1.93;;;1.30;;
211;SDS011;16228;48.800;9.002;2022-08-14T15:25:10;1.40;;;1.30;;
211;SDS011;16228;48.800;9.002;2022-08-14T15:27:39;1.50;;;1.40;;
211;SDS011;16228;48.800;9.002;2022-08-14T15:30:08;2.43;;;1.60;;
211;SDS011;16228;48.800;9.002;2022-08-14T15:32:37;1.57;;;1.47;;
211;SDS011;16228;48.800;9.002;2022-08-14T15:35:04;1.40;;;1.30;;
211;SDS011;16228;48.800;9.002;2022-08-14T15:37:32;2.23;;;1.43;;
211;SDS011;16228;48.800;9.002;2022-08-14T15:40:01;1.50;;;1.40;;
211;SDS011;16228;48.800;9.002;2022-08-14T15:42:28;1.87;;;1.30;;